sensor_id;sensor_type;location;lat;lon;timestamp;P1;durP1;ratioP1;P2;durP2;ratioP2
22201;SDS011;11266;51.522;6.302;2023-06-24T00:00:28;3.90;;;2.88;;
22201;SDS011;11266;51.522;6.302;2023-06-24T00:01:14;6.00;;;3.22;;
22201;SDS011;11266;51.522;6.302;2023-06-24T00:02:00;4.40;;;3.10;;
22201;SDS011;11266;51.522;6.302;2023-06-24T00:02:46;4.57;;;2.97;;
22201;SDS011;11266;51.522;6.302;2023-06-24T00:03:32;4.97;;;3.35;;
22201;SDS011;11266;51.522;6.302;2023-06-24T00:04:22;4.55;;;3.08;;
22201;SDS011;11266;51.522;6.302;2023-06-24T00:05:08;5.03;;;3.25;;
22201;SDS011;11266;51.522;6.302;2023-06-24T00:05:54;5.38;;;3.17;;
22201;SDS011;11266;51.522;6.302;2023-06-24T00:06:42;4.25;;;3.17;;
22201;SDS011;11266;51.522;6.302;2023-06-24T00:07:27;4.53;;;3.00;;
22201;SDS011;11266;51.522;6.302;2023-06-24T00:08:13;4.70;;;3.00;;
22201;SDS011;11266;51.522;6.302;2023-06-24T00:08:58;4.70;;;2.90;;
22201;SDS011;11266;51.522;6.302;2023-06-24T00:09:47;5.20;;;3.20;;
22201;SDS011;11266;51.522;6.302;2023-06-24T00:10:33;5.03;;;2.80;;
22201;SDS011;11266;51.522;6.302;2023-06-24T00:11:18;5.47;;;3.53;;
22201;SDS011;11266;51.522;6.302;2023-06-24T00:12:04;6.35;;;3.35;;
22201;SDS011;11266;51.522;6.302;2023-06-24T00:12:50;5.47;;;3.50;;
22201;SDS011;11266;51.522;6.302;2023-06-24T00:13:36;4.05;;;3.10;;
22201;SDS011;11266;51.522;6.302;2023-06-24T00:14:22;4.15;;;2.83;;
22201;SDS011;11266;51.522;6.302;2023-06-24T00:15:11;6.60;;;3.13;;
22201;SDS011;11266;51.522;6.302;2023-06-24T00:15:57;3.45;;;2.95;;
22201;SDS011;11266;51.522;6.302;2023-06-24T00:16:42;7.32;;;3.40;;
22201;SDS011;11266;51.522;6.302;2023-06-24T00:17:28;5.47;;;2.90;;
22201;SDS011;11266;51.522;6.302;2023-06-24T00:18:13;5.22;;;3.28;;
22201;SDS011;11266;51.522;6.302;2023-06-24T00:18:59;6.15;;;3.45;;
22201;SDS011;11266;51.522;6.302;2023-06-24T00:19:46;5.82;;;3.28;;
22201;SDS011;11266;51.522;6.302;2023-06-24T00:20:32;4.28;;;3.05;;
22201;SDS011;11266;51.522;6.302;2023-06-24T00:21:17;5.47;;;3.17;;
22201;SDS011;11266;51.522;6.302;2023-06-24T00:22:04;5.25;;;3.35;;
22201;SDS011;11266;51.522;6.302;2023-06-24T00:22:51;5.45;;;2.88;;
22201;SDS011;11266;51.522;6.302;2023-06-24T00:23:37;7.25;;;3.08;;
22201;SDS011;11266;51.522;6.302;2023-06-24T00:24:22;4.38;;;3.05;;
22201;SDS011;11266;51.522;6.302;2023-06-24T00:25:10;4.25;;;2.90;;
22201;SDS011;11266;51.522;6.302;2023-06-24T00:25:56;3.75;;;2.80;;
22201;SDS011;11266;51.522;6.302;2023-06-24T00:26:41;6.47;;;3.30;;
22201;SDS011;11266;51.522;6.302;2023-06-24T00:27:27;4.13;;;3.08;;
22201;SDS011;11266;51.522;6.302;2023-06-24T00:28:13;5.53;;;3.13;;
22201;SDS011;11266;51.522;6.302;2023-06-24T00:28:58;5.65;;;3.38;;
22201;SDS011;11266;51.522;6.302;2023-06-24T00:29:44;5.20;;;3.10;;
22201;SDS011;11266;51.522;6.302;2023-06-24T00:30:30;4.07;;;3.08;;
22201;SDS011;11266;51.522;6.302;2023-06-24T00:31:15;4.68;;;3.20;;
22201;SDS011;11266;51.522;6.302;2023-06-24T00:32:01;6.72;;;3.70;;
22201;SDS011;11266;51.522;6.302;2023-06-24T00:32:46;4.40;;;3.20;;
22201;SDS011;11266;51.522;6.302;2023-06-24T00:33:32;4.25;;;3.17;;
22201;SDS011;11266;51.522;6.302;2023-06-24T00:34:21;5.40;;;3.67;;
22201;SDS011;11266;51.522;6.302;2023-06-24T00:35:06;4.15;;;3.20;;
22201;SDS011;11266;51.522;6.302;2023-06-24T00:35:52;4.18;;;3.20;;
22201;SDS011;11266;51.522;6.302;2023-06-24T00:36:38;4.75;;;3.22;;
22201;SDS011;11266;51.522;6.302;2023-06-24T00:37:23;5.45;;;3.05;;
22201;SDS011;11266;51.522;6.302;2023-06-24T00:38:09;4.10;;;2.80;;
22201;SDS011;11266;51.522;6.302;2023-06-24T00:38:55;4.70;;;3.47;;
22201;SDS011;11266;51.522;6.302;2023-06-24T00:39:41;4.60;;;3.28;;
22201;SDS011;11266;51.522;6.302;2023-06-24T00:40:27;4.82;;;3.20;;
22201;SDS011;11266;51.522;6.302;2023-06-24T00:41:13;4.53;;;3.20;;
22201;SDS011;11266;51.522;6.302;2023-06-24T00:41:58;4.00;;;2.88;;
22201;SDS011;11266;51.522;6.302;2023-06-24T00:42:44;4.43;;;3.10;;
22201;SDS011;11266;51.522;6.302;2023-06-24T00:43:31;4.75;;;3.20;;
22201;SDS011;11266;51.522;6.302;2023-06-24T00:44:16;4.10;;;2.97;;
22201;SDS011;11266;51.522;6.302;2023-06-24T00:45:03;4.25;;;3.00;;
22201;SDS011;11266;51.522;6.302;2023-06-24T00:45:50;5.18;;;3.30;;
22201;SDS011;11266;51.522;6.302;2023-06-24T00:46:38;6.55;;;3.40;;
22201;SDS011;11266;51.522;6.302;2023-06-24T00:47:25;3.72;;;2.90;;
22201;SDS011;11266;51.522;6.302;2023-06-24T00:48:11;4.72;;;3.67;;
22201;SDS011;11266;51.522;6.302;2023-06-24T00:48:57;3.75;;;2.80;;
22201;SDS011;11266;51.522;6.302;2023-06-24T00:49:43;7.38;;;3.50;;
22201;SDS011;11266;51.522;6.302;2023-06-24T00:50:30;4.22;;;3.20;;
22201;SDS011;11266;51.522;6.302;2023-06-24T00:51:15;5.55;;;3.60;;
22201;SDS011;11266;51.522;6.302;2023-06-24T00:52:01;4.28;;;3.33;;
22201;SDS011;11266;51.522;6.302;2023-06-24T00:52:47;6.28;;;3.60;;
22201;SDS011;11266;51.522;6.302;2023-06-24T00:53:33;3.88;;;3.20;;
22201;SDS011;11266;51.522;6.302;2023-06-24T00:54:18;5.45;;;3.42;;
22201;SDS011;11266;51.522;6.302;2023-06-24T00:55:04;6.07;;;3.97;;
22201;SDS011;11266;51.522;6.302;2023-06-24T00:55:51;5.03;;;2.92;;
22201;SDS011;11266;51.522;6.302;2023-06-24T00:56:39;4.95;;;3.50;;
22201;SDS011;11266;51.522;6.302;2023-06-24T00:57:27;4.30;;;3.05;;
22201;SDS011;11266;51.522;6.302;2023-06-24T00:58:13;5.07;;;3.35;;
22201;SDS011;11266;51.522;6.302;2023-06-24T00:59:02;4.93;;;3.30;;
22201;SDS011;11266;51.522;6.302;2023-06-24T00:59:48;4.50;;;3.33;;
22201;SDS011;11266;51.522;6.302;2023-06-24T01:00:38;5.60;;;3.72;;
22201;SDS011;11266;51.522;6.302;2023-06-24T01:01:23;5.60;;;3.35;;
22201;SDS011;11266;51.522;6.302;2023-06-24T01:02:10;4.07;;;3.10;;
22201;SDS011;11266;51.522;6.302;2023-06-24T01:02:57;4.72;;;3.50;;
22201;SDS011;11266;51.522;6.302;2023-06-24T01:03:42;5.55;;;3.65;;
22201;SDS011;11266;51.522;6.302;2023-06-24T01:04:28;3.97;;;2.88;;
22201;SDS011;11266;51.522;6.302;2023-06-24T01:05:13;5.05;;;3.45;;
22201;SDS011;11266;51.522;6.302;2023-06-24T01:06:00;3.70;;;2.75;;
22201;SDS011;11266;51.522;6.302;2023-06-24T01:06:45;4.45;;;3.47;;
22201;SDS011;11266;51.522;6.302;2023-06-24T01:07:31;5.45;;;3.70;;
22201;SDS011;11266;51.522;6.302;2023-06-24T01:08:18;3.95;;;3.05;;
22201;SDS011;11266;51.522;6.302;2023-06-24T01:09:04;6.60;;;4.07;;
22201;SDS011;11266;51.522;6.302;2023-06-24T01:09:50;4.10;;;2.88;;
22201;SDS011;11266;51.522;6.302;2023-06-24T01:10:35;8.15;;;3.58;;
22201;SDS011;11266;51.522;6.302;2023-06-24T01:11:21;4.05;;;3.05;;
22201;SDS011;11266;51.522;6.302;2023-06-24T01:12:07;4.80;;;3.17;;
22201;SDS011;11266;51.522;6.302;2023-06-24T01:12:53;6.78;;;3.72;;
22201;SDS011;11266;51.522;6.302;2023-06-24T01:13:39;5.65;;;3.70;;
22201;SDS011;11266;51.522;6.302;2023-06-24T01:14:25;4.65;;;3.00;;
22201;SDS011;11266;51.522;6.302;2023-06-24T01:15:10;6.50;;;3.40;;
22201;SDS011;11266;51.522;6.302;2023-06-24T01:15:58;4.25;;;2.97;;
22201;SDS011;11266;51.522;6.302;2023-06-24T01:17:59;5.22;;;3.30;;
22201;SDS011;11266;51.522;6.302;2023-06-24T01:18:52;7.75;;;3.38;;
22201;SDS011;11266;51.522;6.302;2023-06-24T01:20:01;4.53;;;3.15;;
22201;SDS011;11266;51.522;6.302;2023-06-24T01:21:06;6.28;;;3.72;;
22201;SDS011;11266;51.522;6.302;2023-06-24T01:22:17;3.95;;;2.97;;
22201;SDS011;11266;51.522;6.302;2023-06-24T01:24:12;5.20;;;3.45;;
22201;SDS011;11266;51.522;6.302;2023-06-24T01:26:52;10.30;;;3.80;;
22201;SDS011;11266;51.522;6.302;2023-06-24T01:27:46;5.75;;;3.78;;
22201;SDS011;11266;51.522;6.302;2023-06-24T01:29:52;5.00;;;3.28;;
22201;SDS011;11266;51.522;6.302;2023-06-24T01:31:34;6.22;;;3.55;;
22201;SDS011;11266;51.522;6.302;2023-06-24T01:32:34;5.97;;;3.75;;
22201;SDS011;11266;51.522;6.302;2023-06-24T01:33:34;5.47;;;3.78;;
22201;SDS011;11266;51.522;6.302;2023-06-24T01:34:29;5.88;;;3.65;;
22201;SDS011;11266;51.522;6.302;2023-06-24T01:35:23;5.30;;;3.75;;
22201;SDS011;11266;51.522;6.302;2023-06-24T01:36:13;5.80;;;3.70;;
22201;SDS011;11266;51.522;6.302;2023-06-24T01:37:54;8.23;;;3.97;;
22201;SDS011;11266;51.522;6.302;2023-06-24T01:39:15;4.57;;;3.28;;
22201;SDS011;11266;51.522;6.302;2023-06-24T01:41:07;5.75;;;4.05;;
22201;SDS011;11266;51.522;6.302;2023-06-24T01:41:56;4.97;;;3.35;;
22201;SDS011;11266;51.522;6.302;2023-06-24T01:42:45;12.52;;;4.32;;
22201;SDS011;11266;51.522;6.302;2023-06-24T01:43:32;8.30;;;3.70;;
22201;SDS011;11266;51.522;6.302;2023-06-24T01:44:19;5.68;;;4.18;;
22201;SDS011;11266;51.522;6.302;2023-06-24T01:45:06;5.43;;;3.75;;
22201;SDS011;11266;51.522;6.302;2023-06-24T01:45:55;6.00;;;3.85;;
22201;SDS011;11266;51.522;6.302;2023-06-24T01:46:42;4.93;;;3.50;;
22201;SDS011;11266;51.522;6.302;2023-06-24T01:47:31;8.18;;;3.95;;
22201;SDS011;11266;51.522;6.302;2023-06-24T01:48:27;4.95;;;3.47;;
22201;SDS011;11266;51.522;6.302;2023-06-24T01:49:14;5.25;;;3.88;;
22201;SDS011;11266;51.522;6.302;2023-06-24T01:50:02;4.78;;;3.90;;
22201;SDS011;11266;51.522;6.302;2023-06-24T01:50:52;5.57;;;3.72;;
22201;SDS011;11266;51.522;6.302;2023-06-24T01:51:44;6.15;;;4.20;;
22201;SDS011;11266;51.522;6.302;2023-06-24T01:52:32;5.43;;;4.13;;
22201;SDS011;11266;51.522;6.302;2023-06-24T01:53:20;8.77;;;4.00;;
22201;SDS011;11266;51.522;6.302;2023-06-24T01:54:07;5.03;;;3.88;;
22201;SDS011;11266;51.522;6.302;2023-06-24T01:54:58;5.85;;;3.97;;
22201;SDS011;11266;51.522;6.302;2023-06-24T01:55:45;8.45;;;4.13;;
22201;SDS011;11266;51.522;6.302;2023-06-24T01:56:33;5.63;;;3.88;;
22201;SDS011;11266;51.522;6.302;2023-06-24T01:57:20;6.38;;;4.05;;
22201;SDS011;11266;51.522;6.302;2023-06-24T01:58:07;4.80;;;3.63;;
22201;SDS011;11266;51.522;6.302;2023-06-24T01:58:57;5.53;;;3.88;;
22201;SDS011;11266;51.522;6.302;2023-06-24T01:59:45;4.88;;;3.72;;
22201;SDS011;11266;51.522;6.302;2023-06-24T02:00:32;8.80;;;4.07;;
22201;SDS011;11266;51.522;6.302;2023-06-24T02:01:19;4.88;;;3.67;;
22201;SDS011;11266;51.522;6.302;2023-06-24T02:02:07;6.60;;;4.13;;
22201;SDS011;11266;51.522;6.302;2023-06-24T02:02:53;8.45;;;4.22;;
22201;SDS011;11266;51.522;6.302;2023-06-24T02:03:39;6.10;;;4.05;;
22201;SDS011;11266;51.522;6.302;2023-06-24T02:04:26;4.97;;;3.72;;
22201;SDS011;11266;51.522;6.302;2023-06-24T02:05:16;5.30;;;4.00;;
22201;SDS011;11266;51.522;6.302;2023-06-24T02:06:03;6.35;;;4.20;;
22201;SDS011;11266;51.522;6.302;2023-06-24T02:06:51;5.55;;;4.22;;
22201;SDS011;11266;51.522;6.302;2023-06-24T02:07:39;5.80;;;3.95;;
22201;SDS011;11266;51.522;6.302;2023-06-24T02:08:29;12.15;;;4.43;;
22201;SDS011;11266;51.522;6.302;2023-06-24T02:09:18;6.28;;;3.90;;
22201;SDS011;11266;51.522;6.302;2023-06-24T02:10:04;5.63;;;4.18;;
22201;SDS011;11266;51.522;6.302;2023-06-24T02:10:52;6.20;;;4.22;;
22201;SDS011;11266;51.522;6.302;2023-06-24T02:11:39;7.82;;;4.22;;
22201;SDS011;11266;51.522;6.302;2023-06-24T02:12:25;5.70;;;4.32;;
22201;SDS011;11266;51.522;6.302;2023-06-24T02:13:13;6.10;;;3.90;;
22201;SDS011;11266;51.522;6.302;2023-06-24T02:13:59;7.03;;;4.13;;
22201;SDS011;11266;51.522;6.302;2023-06-24T02:14:47;6.07;;;4.25;;
22201;SDS011;11266;51.522;6.302;2023-06-24T02:15:34;7.10;;;4.10;;
22201;SDS011;11266;51.522;6.302;2023-06-24T02:16:21;7.13;;;4.45;;
22201;SDS011;11266;51.522;6.302;2023-06-24T02:17:08;6.72;;;4.18;;
22201;SDS011;11266;51.522;6.302;2023-06-24T02:17:56;6.45;;;3.95;;
22201;SDS011;11266;51.522;6.302;2023-06-24T02:18:43;5.55;;;4.15;;
22201;SDS011;11266;51.522;6.302;2023-06-24T02:19:30;6.18;;;4.03;;
22201;SDS011;11266;51.522;6.302;2023-06-24T02:20:16;9.60;;;4.13;;
22201;SDS011;11266;51.522;6.302;2023-06-24T02:21:03;4.68;;;4.00;;
22201;SDS011;11266;51.522;6.302;2023-06-24T02:21:50;5.85;;;4.32;;
22201;SDS011;11266;51.522;6.302;2023-06-24T02:22:38;6.10;;;4.80;;
22201;SDS011;11266;51.522;6.302;2023-06-24T02:23:24;6.82;;;4.32;;
22201;SDS011;11266;51.522;6.302;2023-06-24T02:24:10;7.05;;;4.22;;
22201;SDS011;11266;51.522;6.302;2023-06-24T02:24:57;5.15;;;4.10;;
22201;SDS011;11266;51.522;6.302;2023-06-24T02:25:43;6.15;;;4.72;;
22201;SDS011;11266;51.522;6.302;2023-06-24T02:26:29;4.70;;;3.90;;
22201;SDS011;11266;51.522;6.302;2023-06-24T02:27:14;5.03;;;4.00;;
22201;SDS011;11266;51.522;6.302;2023-06-24T02:28:01;5.68;;;3.90;;
22201;SDS011;11266;51.522;6.302;2023-06-24T02:28:47;5.35;;;4.20;;
22201;SDS011;11266;51.522;6.302;2023-06-24T02:29:34;5.53;;;4.10;;
22201;SDS011;11266;51.522;6.302;2023-06-24T02:30:21;7.93;;;4.20;;
22201;SDS011;11266;51.522;6.302;2023-06-24T02:31:08;6.82;;;4.53;;
22201;SDS011;11266;51.522;6.302;2023-06-24T02:31:55;7.03;;;4.07;;
22201;SDS011;11266;51.522;6.302;2023-06-24T02:32:41;6.13;;;4.32;;
22201;SDS011;11266;51.522;6.302;2023-06-24T02:33:26;5.85;;;4.60;;
22201;SDS011;11266;51.522;6.302;2023-06-24T02:34:13;5.95;;;4.30;;
22201;SDS011;11266;51.522;6.302;2023-06-24T02:35:00;5.22;;;4.20;;
22201;SDS011;11266;51.522;6.302;2023-06-24T02:35:46;6.72;;;4.28;;
22201;SDS011;11266;51.522;6.302;2023-06-24T02:36:32;5.70;;;4.35;;
22201;SDS011;11266;51.522;6.302;2023-06-24T02:37:17;5.85;;;4.45;;
22201;SDS011;11266;51.522;6.302;2023-06-24T02:38:03;5.95;;;4.65;;
22201;SDS011;11266;51.522;6.302;2023-06-24T02:38:48;6.72;;;5.00;;
22201;SDS011;11266;51.522;6.302;2023-06-24T02:39:34;5.90;;;4.88;;
22201;SDS011;11266;51.522;6.302;2023-06-24T02:40:22;8.32;;;4.50;;
22201;SDS011;11266;51.522;6.302;2023-06-24T02:41:08;5.50;;;4.40;;
22201;SDS011;11266;51.522;6.302;2023-06-24T02:41:54;8.13;;;5.00;;
22201;SDS011;11266;51.522;6.302;2023-06-24T02:42:39;6.50;;;4.85;;
22201;SDS011;11266;51.522;6.302;2023-06-24T02:43:25;6.28;;;4.60;;
22201;SDS011;11266;51.522;6.302;2023-06-24T02:44:11;6.47;;;4.90;;
22201;SDS011;11266;51.522;6.302;2023-06-24T02:44:56;5.88;;;4.30;;
22201;SDS011;11266;51.522;6.302;2023-06-24T02:45:42;6.65;;;4.68;;
22201;SDS011;11266;51.522;6.302;2023-06-24T02:46:29;8.05;;;4.85;;
22201;SDS011;11266;51.522;6.302;2023-06-24T02:47:19;6.60;;;4.53;;
22201;SDS011;11266;51.522;6.302;2023-06-24T02:48:06;7.55;;;4.55;;
22201;SDS011;11266;51.522;6.302;2023-06-24T02:48:53;5.40;;;4.35;;
22201;SDS011;11266;51.522;6.302;2023-06-24T02:49:39;7.07;;;4.88;;
22201;SDS011;11266;51.522;6.302;2023-06-24T02:50:26;5.82;;;4.43;;
22201;SDS011;11266;51.522;6.302;2023-06-24T02:51:12;6.88;;;4.82;;
22201;SDS011;11266;51.522;6.302;2023-06-24T02:51:58;7.80;;;4.60;;
22201;SDS011;11266;51.522;6.302;2023-06-24T02:52:44;7.75;;;4.68;;
22201;SDS011;11266;51.522;6.302;2023-06-24T02:53:30;8.90;;;5.47;;
22201;SDS011;11266;51.522;6.302;2023-06-24T02:54:19;7.03;;;5.28;;
22201;SDS011;11266;51.522;6.302;2023-06-24T02:56:33;10.68;;;5.85;;
22201;SDS011;11266;51.522;6.302;2023-06-24T02:57:20;7.65;;;5.32;;
22201;SDS011;11266;51.522;6.302;2023-06-24T02:58:07;12.15;;;6.50;;
22201;SDS011;11266;51.522;6.302;2023-06-24T02:58:56;9.75;;;5.60;;
22201;SDS011;11266;51.522;6.302;2023-06-24T02:59:41;7.80;;;5.45;;
22201;SDS011;11266;51.522;6.302;2023-06-24T03:00:27;6.95;;;4.78;;
22201;SDS011;11266;51.522;6.302;2023-06-24T03:01:18;8.90;;;5.45;;
22201;SDS011;11266;51.522;6.302;2023-06-24T03:02:09;8.02;;;5.03;;
22201;SDS011;11266;51.522;6.302;2023-06-24T03:02:55;8.15;;;5.00;;
22201;SDS011;11266;51.522;6.302;2023-06-24T03:03:41;7.05;;;5.18;;
22201;SDS011;11266;51.522;6.302;2023-06-24T03:04:28;8.90;;;5.07;;
22201;SDS011;11266;51.522;6.302;2023-06-24T03:05:14;8.75;;;4.88;;
22201;SDS011;11266;51.522;6.302;2023-06-24T03:06:01;9.73;;;5.50;;
22201;SDS011;11266;51.522;6.302;2023-06-24T03:06:47;8.38;;;5.18;;
22201;SDS011;11266;51.522;6.302;2023-06-24T03:07:34;9.60;;;4.63;;
22201;SDS011;11266;51.522;6.302;2023-06-24T03:08:21;10.43;;;4.88;;
22201;SDS011;11266;51.522;6.302;2023-06-24T03:09:09;5.97;;;5.00;;
22201;SDS011;11266;51.522;6.302;2023-06-24T03:09:54;5.55;;;4.57;;
22201;SDS011;11266;51.522;6.302;2023-06-24T03:10:40;8.05;;;5.00;;
22201;SDS011;11266;51.522;6.302;2023-06-24T03:11:26;6.45;;;5.05;;
22201;SDS011;11266;51.522;6.302;2023-06-24T03:12:13;9.27;;;5.10;;
22201;SDS011;11266;51.522;6.302;2023-06-24T03:12:58;11.02;;;4.85;;
22201;SDS011;11266;51.522;6.302;2023-06-24T03:13:44;7.47;;;5.45;;
22201;SDS011;11266;51.522;6.302;2023-06-24T03:14:29;11.65;;;5.10;;
22201;SDS011;11266;51.522;6.302;2023-06-24T03:15:15;9.15;;;5.13;;
22201;SDS011;11266;51.522;6.302;2023-06-24T03:16:00;10.02;;;5.00;;
22201;SDS011;11266;51.522;6.302;2023-06-24T03:16:46;7.43;;;4.88;;
22201;SDS011;11266;51.522;6.302;2023-06-24T03:17:31;6.80;;;5.00;;
22201;SDS011;11266;51.522;6.302;2023-06-24T03:18:17;6.75;;;5.10;;
22201;SDS011;11266;51.522;6.302;2023-06-24T03:19:03;6.88;;;4.68;;
22201;SDS011;11266;51.522;6.302;2023-06-24T03:19:49;7.28;;;4.72;;
22201;SDS011;11266;51.522;6.302;2023-06-24T03:20:35;6.43;;;4.88;;
22201;SDS011;11266;51.522;6.302;2023-06-24T03:21:23;6.25;;;4.70;;
22201;SDS011;11266;51.522;6.302;2023-06-24T03:22:13;8.30;;;4.88;;
22201;SDS011;11266;51.522;6.302;2023-06-24T03:22:58;8.00;;;5.63;;
22201;SDS011;11266;51.522;6.302;2023-06-24T03:23:44;7.00;;;4.90;;
22201;SDS011;11266;51.522;6.302;2023-06-24T03:24:29;7.10;;;4.85;;
22201;SDS011;11266;51.522;6.302;2023-06-24T03:25:15;8.20;;;5.07;;
22201;SDS011;11266;51.522;6.302;2023-06-24T03:26:01;7.10;;;4.78;;
22201;SDS011;11266;51.522;6.302;2023-06-24T03:26:47;6.10;;;4.78;;
22201;SDS011;11266;51.522;6.302;2023-06-24T03:27:35;8.27;;;5.15;;
22201;SDS011;11266;51.522;6.302;2023-06-24T03:28:21;7.50;;;4.97;;
22201;SDS011;11266;51.522;6.302;2023-06-24T03:29:07;8.25;;;5.32;;
22201;SDS011;11266;51.522;6.302;2023-06-24T03:29:53;8.10;;;5.70;;
22201;SDS011;11266;51.522;6.302;2023-06-24T03:30:38;7.93;;;4.72;;
22201;SDS011;11266;51.522;6.302;2023-06-24T03:31:24;6.03;;;4.82;;
22201;SDS011;11266;51.522;6.302;2023-06-24T03:32:09;6.28;;;4.75;;
22201;SDS011;11266;51.522;6.302;2023-06-24T03:32:55;7.43;;;5.15;;
22201;SDS011;11266;51.522;6.302;2023-06-24T03:33:42;7.50;;;4.45;;
22201;SDS011;11266;51.522;6.302;2023-06-24T03:34:31;7.28;;;4.88;;
22201;SDS011;11266;51.522;6.302;2023-06-24T03:35:17;5.38;;;4.53;;
22201;SDS011;11266;51.522;6.302;2023-06-24T03:36:03;5.85;;;4.65;;
22201;SDS011;11266;51.522;6.302;2023-06-24T03:36:48;5.75;;;4.30;;
22201;SDS011;11266;51.522;6.302;2023-06-24T03:37:34;6.35;;;4.65;;
22201;SDS011;11266;51.522;6.302;2023-06-24T03:38:20;5.28;;;4.55;;
22201;SDS011;11266;51.522;6.302;2023-06-24T03:39:06;8.15;;;4.60;;
22201;SDS011;11266;51.522;6.302;2023-06-24T03:39:51;7.13;;;4.90;;
22201;SDS011;11266;51.522;6.302;2023-06-24T03:40:37;7.63;;;5.00;;
22201;SDS011;11266;51.522;6.302;2023-06-24T03:41:23;7.45;;;5.10;;
22201;SDS011;11266;51.522;6.302;2023-06-24T03:42:08;8.25;;;5.13;;
22201;SDS011;11266;51.522;6.302;2023-06-24T03:42:54;6.53;;;5.00;;
22201;SDS011;11266;51.522;6.302;2023-06-24T03:43:39;7.00;;;5.20;;
22201;SDS011;11266;51.522;6.302;2023-06-24T03:44:26;6.03;;;4.65;;
22201;SDS011;11266;51.522;6.302;2023-06-24T03:45:12;5.53;;;4.60;;
22201;SDS011;11266;51.522;6.302;2023-06-24T03:45:58;5.43;;;4.57;;
22201;SDS011;11266;51.522;6.302;2023-06-24T03:46:44;7.13;;;4.88;;
22201;SDS011;11266;51.522;6.302;2023-06-24T03:47:30;7.00;;;5.07;;
22201;SDS011;11266;51.522;6.302;2023-06-24T03:48:15;6.50;;;4.60;;
22201;SDS011;11266;51.522;6.302;2023-06-24T03:49:01;6.70;;;5.15;;
22201;SDS011;11266;51.522;6.302;2023-06-24T03:49:47;9.45;;;5.57;;
22201;SDS011;11266;51.522;6.302;2023-06-24T03:50:32;7.45;;;5.35;;
22201;SDS011;11266;51.522;6.302;2023-06-24T03:51:18;7.38;;;5.18;;
22201;SDS011;11266;51.522;6.302;2023-06-24T03:52:03;7.25;;;5.60;;
22201;SDS011;11266;51.522;6.302;2023-06-24T03:52:53;6.47;;;5.28;;
22201;SDS011;11266;51.522;6.302;2023-06-24T03:53:39;6.82;;;5.47;;
22201;SDS011;11266;51.522;6.302;2023-06-24T03:54:24;6.43;;;4.90;;
22201;SDS011;11266;51.522;6.302;2023-06-24T03:55:10;8.23;;;5.10;;
22201;SDS011;11266;51.522;6.302;2023-06-24T03:55:56;7.93;;;5.15;;
22201;SDS011;11266;51.522;6.302;2023-06-24T03:56:41;6.75;;;4.93;;
22201;SDS011;11266;51.522;6.302;2023-06-24T03:57:27;5.55;;;4.70;;
22201;SDS011;11266;51.522;6.302;2023-06-24T03:58:12;5.88;;;4.85;;
22201;SDS011;11266;51.522;6.302;2023-06-24T03:58:58;6.60;;;5.25;;
22201;SDS011;11266;51.522;6.302;2023-06-24T03:59:44;6.50;;;5.18;;
22201;SDS011;11266;51.522;6.302;2023-06-24T04:00:29;7.63;;;5.72;;
22201;SDS011;11266;51.522;6.302;2023-06-24T04:01:15;7.55;;;5.75;;
22201;SDS011;11266;51.522;6.302;2023-06-24T04:02:04;7.03;;;5.88;;
22201;SDS011;11266;51.522;6.302;2023-06-24T04:02:53;6.45;;;5.13;;
22201;SDS011;11266;51.522;6.302;2023-06-24T04:03:39;6.65;;;5.35;;
22201;SDS011;11266;51.522;6.302;2023-06-24T04:04:25;6.55;;;5.28;;
22201;SDS011;11266;51.522;6.302;2023-06-24T04:05:10;8.70;;;5.40;;
22201;SDS011;11266;51.522;6.302;2023-06-24T04:05:56;7.82;;;5.38;;
22201;SDS011;11266;51.522;6.302;2023-06-24T04:06:42;6.30;;;5.35;;
22201;SDS011;11266;51.522;6.302;2023-06-24T04:07:28;7.10;;;5.18;;
22201;SDS011;11266;51.522;6.302;2023-06-24T04:08:13;6.60;;;5.15;;
22201;SDS011;11266;51.522;6.302;2023-06-24T04:08:59;5.85;;;4.90;;
22201;SDS011;11266;51.522;6.302;2023-06-24T04:09:44;7.70;;;4.75;;
22201;SDS011;11266;51.522;6.302;2023-06-24T04:10:30;7.50;;;5.57;;
22201;SDS011;11266;51.522;6.302;2023-06-24T04:11:16;6.85;;;5.03;;
22201;SDS011;11266;51.522;6.302;2023-06-24T04:12:01;5.47;;;4.80;;
22201;SDS011;11266;51.522;6.302;2023-06-24T04:12:47;9.00;;;5.25;;
22201;SDS011;11266;51.522;6.302;2023-06-24T04:13:33;5.63;;;4.55;;
22201;SDS011;11266;51.522;6.302;2023-06-24T04:14:18;6.22;;;5.00;;
22201;SDS011;11266;51.522;6.302;2023-06-24T04:15:04;6.32;;;5.05;;
22201;SDS011;11266;51.522;6.302;2023-06-24T04:15:50;6.45;;;4.90;;
22201;SDS011;11266;51.522;6.302;2023-06-24T04:16:35;5.95;;;4.72;;
22201;SDS011;11266;51.522;6.302;2023-06-24T04:17:21;6.45;;;5.10;;
22201;SDS011;11266;51.522;6.302;2023-06-24T04:18:07;6.30;;;5.15;;
22201;SDS011;11266;51.522;6.302;2023-06-24T04:18:53;8.27;;;5.50;;
22201;SDS011;11266;51.522;6.302;2023-06-24T04:19:38;5.93;;;4.88;;
22201;SDS011;11266;51.522;6.302;2023-06-24T04:20:24;6.38;;;5.32;;
22201;SDS011;11266;51.522;6.302;2023-06-24T04:21:10;6.20;;;4.88;;
22201;SDS011;11266;51.522;6.302;2023-06-24T04:21:56;6.40;;;5.20;;
22201;SDS011;11266;51.522;6.302;2023-06-24T04:22:41;6.80;;;5.38;;
22201;SDS011;11266;51.522;6.302;2023-06-24T04:23:27;6.05;;;4.82;;
22201;SDS011;11266;51.522;6.302;2023-06-24T04:24:13;6.55;;;5.28;;
22201;SDS011;11266;51.522;6.302;2023-06-24T04:24:58;7.22;;;5.63;;
22201;SDS011;11266;51.522;6.302;2023-06-24T04:25:44;8.75;;;5.63;;
22201;SDS011;11266;51.522;6.302;2023-06-24T04:26:30;7.70;;;5.88;;
22201;SDS011;11266;51.522;6.302;2023-06-24T04:27:15;6.45;;;5.13;;
22201;SDS011;11266;51.522;6.302;2023-06-24T04:28:01;7.15;;;5.53;;
22201;SDS011;11266;51.522;6.302;2023-06-24T04:28:47;7.30;;;5.25;;
22201;SDS011;11266;51.522;6.302;2023-06-24T04:29:32;5.78;;;5.00;;
22201;SDS011;11266;51.522;6.302;2023-06-24T04:30:18;8.95;;;6.15;;
22201;SDS011;11266;51.522;6.302;2023-06-24T04:31:03;6.72;;;4.55;;
22201;SDS011;11266;51.522;6.302;2023-06-24T04:31:49;8.15;;;5.47;;
22201;SDS011;11266;51.522;6.302;2023-06-24T04:32:35;11.82;;;5.35;;
22201;SDS011;11266;51.522;6.302;2023-06-24T04:33:20;8.35;;;4.93;;
22201;SDS011;11266;51.522;6.302;2023-06-24T04:34:06;6.28;;;5.07;;
22201;SDS011;11266;51.522;6.302;2023-06-24T04:34:52;11.55;;;5.18;;
22201;SDS011;11266;51.522;6.302;2023-06-24T04:35:38;8.45;;;5.30;;
22201;SDS011;11266;51.522;6.302;2023-06-24T04:36:24;10.48;;;5.95;;
22201;SDS011;11266;51.522;6.302;2023-06-24T04:37:09;6.97;;;5.45;;
22201;SDS011;11266;51.522;6.302;2023-06-24T04:37:55;9.30;;;5.85;;
22201;SDS011;11266;51.522;6.302;2023-06-24T04:38:41;8.63;;;5.72;;
22201;SDS011;11266;51.522;6.302;2023-06-24T04:39:26;8.77;;;5.95;;
22201;SDS011;11266;51.522;6.302;2023-06-24T04:40:12;10.73;;;6.15;;
22201;SDS011;11266;51.522;6.302;2023-06-24T04:40:59;8.90;;;5.55;;
22201;SDS011;11266;51.522;6.302;2023-06-24T04:41:44;9.88;;;5.65;;
22201;SDS011;11266;51.522;6.302;2023-06-24T04:42:35;7.78;;;5.32;;
22201;SDS011;11266;51.522;6.302;2023-06-24T04:43:21;8.52;;;5.32;;
22201;SDS011;11266;51.522;6.302;2023-06-24T04:44:10;9.07;;;4.85;;
22201;SDS011;11266;51.522;6.302;2023-06-24T04:44:55;8.35;;;5.70;;
22201;SDS011;11266;51.522;6.302;2023-06-24T04:45:41;9.27;;;5.45;;
22201;SDS011;11266;51.522;6.302;2023-06-24T04:46:26;7.38;;;5.18;;
22201;SDS011;11266;51.522;6.302;2023-06-24T04:47:12;8.18;;;5.30;;
22201;SDS011;11266;51.522;6.302;2023-06-24T04:47:58;10.27;;;5.75;;
22201;SDS011;11266;51.522;6.302;2023-06-24T04:48:44;8.90;;;5.43;;
22201;SDS011;11266;51.522;6.302;2023-06-24T04:49:29;13.65;;;5.50;;
22201;SDS011;11266;51.522;6.302;2023-06-24T04:50:15;11.85;;;5.43;;
22201;SDS011;11266;51.522;6.302;2023-06-24T04:51:01;9.27;;;5.85;;
22201;SDS011;11266;51.522;6.302;2023-06-24T04:51:46;11.65;;;6.22;;
22201;SDS011;11266;51.522;6.302;2023-06-24T04:52:32;12.98;;;5.72;;